TimeEST,TemperatureF,Dew PointF,Humidity,Sea Level PressureIn,VisibilityMPH,Wind Direction,Wind SpeedMPH,Gust SpeedMPH,PrecipitationIn,Events,Conditions,WindDirDegrees,DateUTC
12:15 AM,8.6,-0.4,67,30.39,-9999.0,NNE,10.4,-,N/A,,Clear,20,2014-01-28 05:15:00
12:35 AM,8.6,-0.4,67,30.38,-9999.0,NNE,8.1,-,N/A,,Clear,20,2014-01-28 05:35:00
12:55 AM,8.6,-2.2,62,30.38,-9999.0,NNE,6.9,-,N/A,,Clear,20,2014-01-28 05:55:00
1:15 AM,8.6,-2.2,62,30.38,10.0,NNE,6.9,-,N/A,,Clear,30,2014-01-28 06:15:00
1:35 AM,6.8,-4.0,61,30.38,10.0,NE,6.9,-,N/A,,Clear,40,2014-01-28 06:35:00
1:55 AM,6.8,-4.0,61,30.38,-9999.0,NNE,9.2,-,N/A,,Clear,30,2014-01-28 06:55:00
2:15 AM,6.8,-4.0,61,30.39,10.0,NNE,8.1,-,N/A,,Clear,30,2014-01-28 07:15:00
2:35 AM,6.8,-4.0,61,30.39,-9999.0,NE,6.9,-,N/A,,Clear,50,2014-01-28 07:35:00
2:55 AM,5.0,-4.0,66,30.39,-9999.0,NE,4.6,-,N/A,,Clear,40,2014-01-28 07:55:00
3:15 AM,5.0,-4.0,66,30.39,-9999.0,NE,3.5,-,N/A,,Clear,50,2014-01-28 08:15:00
3:35 AM,5.0,-5.8,61,30.39,-9999.0,NNE,8.1,-,N/A,,Clear,20,2014-01-28 08:35:00
3:55 AM,5.0,-5.8,61,30.40,-9999.0,North,3.5,-,N/A,,Clear,10,2014-01-28 08:55:00
4:15 AM,3.2,-5.8,66,30.39,-9999.0,NNE,5.8,-,N/A,,Clear,20,2014-01-28 09:15:00
4:35 AM,3.2,-5.8,66,30.40,-9999.0,NNE,5.8,-,N/A,,Clear,20,2014-01-28 09:35:00
4:55 AM,3.2,-5.8,66,30.40,-9999.0,NNE,3.5,-,N/A,,Clear,20,2014-01-28 09:55:00
5:15 AM,3.2,-5.8,66,30.40,-9999.0,NNE,4.6,-,N/A,,Clear,30,2014-01-28 10:15:00
5:35 AM,3.2,-4.0,72,30.41,-9999.0,NNE,6.9,-,N/A,,Clear,30,2014-01-28 10:35:00
5:55 AM,3.2,-4.0,72,30.41,-9999.0,NE,6.9,-,N/A,,Clear,50,2014-01-28 10:55:00
6:15 AM,3.2,-4.0,72,30.41,-9999.0,ENE,8.1,-,N/A,,Clear,60,2014-01-28 11:15:00
6:35 AM,3.2,-5.8,66,30.40,-9999.0,NE,8.1,-,N/A,,Clear,50,2014-01-28 11:35:00
6:55 AM,3.2,-5.8,66,30.40,-9999.0,ENE,6.9,-,N/A,,Clear,70,2014-01-28 11:55:00
7:15 AM,3.2,-5.8,66,30.42,-9999.0,NE,5.8,-,N/A,,Clear,40,2014-01-28 12:15:00
7:35 AM,3.2,-5.8,66,30.43,-9999.0,ENE,6.9,-,N/A,,Clear,60,2014-01-28 12:35:00
7:55 AM,1.4,-5.8,72,30.43,-9999.0,ENE,5.8,-,N/A,,Clear,60,2014-01-28 12:55:00
8:15 AM,1.4,-5.8,72,30.42,-9999.0,NE,6.9,-,N/A,,Clear,50,2014-01-28 13:15:00
8:35 AM,3.2,-5.8,66,30.42,-9999.0,NE,4.6,-,N/A,,Clear,50,2014-01-28 13:35:00
8:55 AM,3.2,-4.0,72,30.42,-9999.0,NE,4.6,-,N/A,,Scattered Clouds,50,2014-01-28 13:55:00
9:15 AM,3.2,-5.8,66,30.42,-9999.0,NE,4.6,-,N/A,,Scattered Clouds,50,2014-01-28 14:15:00
9:35 AM,3.2,-5.8,66,30.43,-9999.0,ENE,4.6,-,N/A,,Clear,60,2014-01-28 14:35:00
9:55 AM,5.0,-5.8,61,30.44,-9999.0,NE,4.6,-,N/A,,Clear,40,2014-01-28 14:55:00
10:15 AM,5.0,-5.8,61,30.43,-9999.0,NE,5.8,-,N/A,,Clear,50,2014-01-28 15:15:00
10:35 AM,6.8,-5.8,56,30.43,-9999.0,NE,3.5,-,N/A,,Scattered Clouds,50,2014-01-28 15:35:00
10:55 AM,6.8,-5.8,56,30.44,-9999.0,ENE,3.5,-,N/A,,Clear,60,2014-01-28 15:55:00
11:15 AM,6.8,-5.8,56,30.43,-9999.0,NNE,5.8,-,N/A,,Mostly Cloudy,20,2014-01-28 16:15:00
11:35 AM,8.6,-5.8,52,30.42,-9999.0,North,3.5,-,N/A,,Overcast,10,2014-01-28 16:35:00
11:55 AM,8.6,-5.8,52,30.41,-9999.0,ENE,4.6,-,N/A,,Overcast,70,2014-01-28 16:55:00
12:15 PM,8.6,-5.8,52,30.40,-9999.0,East,3.5,-,N/A,,Mostly Cloudy,80,2014-01-28 17:15:00
12:35 PM,8.6,-5.8,52,30.38,10.0,ENE,3.5,-,N/A,,Scattered Clouds,60,2014-01-28 17:35:00
12:55 PM,10.4,-5.8,48,30.37,-9999.0,Calm,Calm,-,N/A,,Overcast,0,2014-01-28 17:55:00
1:15 PM,10.4,-5.8,48,30.36,10.0,Calm,Calm,-,N/A,,Overcast,0,2014-01-28 18:15:00
1:35 PM,10.4,-5.8,48,30.36,-9999.0,NNW,3.5,-,N/A,,Overcast,340,2014-01-28 18:35:00
1:55 PM,10.4,-5.8,48,30.35,-9999.0,Calm,Calm,-,N/A,,Overcast,0,2014-01-28 18:55:00
2:15 PM,10.4,-5.8,48,30.34,-9999.0,Calm,Calm,-,N/A,,Overcast,0,2014-01-28 19:15:00
2:35 PM,10.4,-7.6,44,30.33,10.0,East,3.5,-,N/A,,Overcast,80,2014-01-28 19:35:00
2:55 PM,12.2,-5.8,45,30.33,-9999.0,ENE,5.8,-,N/A,,Overcast,60,2014-01-28 19:55:00
3:15 PM,12.2,-5.8,45,30.33,-9999.0,North,4.6,-,N/A,,Overcast,360,2014-01-28 20:15:00
3:35 PM,12.2,-5.8,45,30.33,-9999.0,Calm,Calm,-,N/A,,Overcast,0,2014-01-28 20:35:00
3:55 PM,12.2,-5.8,45,30.34,-9999.0,NNW,3.5,-,N/A,,Overcast,340,2014-01-28 20:55:00
4:15 PM,12.2,-5.8,45,30.33,-9999.0,NNE,3.5,-,N/A,,Overcast,20,2014-01-28 21:15:00
4:35 PM,12.2,-5.8,45,30.32,-9999.0,Calm,Calm,-,N/A,,Overcast,0,2014-01-28 21:35:00
4:55 PM,12.2,-5.8,45,30.32,-9999.0,North,3.5,-,N/A,,Overcast,350,2014-01-28 21:55:00
5:15 PM,12.2,-7.6,41,30.32,-9999.0,NNW,3.5,-,N/A,,Overcast,340,2014-01-28 22:15:00
5:35 PM,10.4,-7.6,44,30.32,-9999.0,NNW,3.5,-,N/A,,Overcast,340,2014-01-28 22:35:00
5:55 PM,10.4,-5.8,48,30.33,-9999.0,North,5.8,-,N/A,,Mostly Cloudy,350,2014-01-28 22:55:00
6:15 PM,10.4,-5.8,48,30.32,-9999.0,Calm,Calm,-,N/A,,Scattered Clouds,0,2014-01-28 23:15:00
6:35 PM,10.4,-5.8,48,30.32,-9999.0,Calm,Calm,-,N/A,,Scattered Clouds,0,2014-01-28 23:35:00
6:55 PM,10.4,-4.0,52,30.32,-9999.0,Calm,Calm,-,N/A,,Clear,0,2014-01-28 23:55:00
7:15 PM,10.4,-4.0,52,30.32,-9999.0,Calm,Calm,-,N/A,,Clear,0,2014-01-29 00:15:00
7:35 PM,8.6,-4.0,57,30.32,-9999.0,Calm,Calm,-,N/A,,Clear,0,2014-01-29 00:35:00
7:55 PM,8.6,-4.0,57,30.32,-9999.0,Calm,Calm,-,N/A,,Clear,0,2014-01-29 00:55:00
8:15 PM,8.6,-4.0,57,30.32,-9999.0,Calm,Calm,-,N/A,,Clear,0,2014-01-29 01:15:00
8:35 PM,5.0,-4.0,66,30.32,-9999.0,Calm,Calm,-,N/A,,Clear,0,2014-01-29 01:35:00
8:55 PM,6.8,-4.0,61,30.32,-9999.0,Calm,Calm,-,N/A,,Clear,0,2014-01-29 01:55:00
9:15 PM,5.0,-4.0,66,30.32,-9999.0,Calm,Calm,-,N/A,,Clear,0,2014-01-29 02:15:00
9:35 PM,5.0,-4.0,66,30.32,-9999.0,Calm,Calm,-,N/A,,Clear,0,2014-01-29 02:35:00
9:55 PM,3.2,-4.0,72,30.33,-9999.0,Calm,Calm,-,N/A,,Clear,0,2014-01-29 02:55:00
10:15 PM,3.2,-4.0,72,30.33,-9999.0,Calm,Calm,-,N/A,,Clear,0,2014-01-29 03:15:00
10:35 PM,3.2,-4.0,72,30.33,-9999.0,Calm,Calm,-,N/A,,Clear,0,2014-01-29 03:35:00
10:55 PM,1.4,-2.2,85,30.33,-9999.0,Calm,Calm,-,N/A,,Unknown,0,2014-01-29 03:55:00
11:15 PM,-0.4,-4.0,85,30.34,-9999.0,Calm,Calm,-,N/A,,Unknown,0,2014-01-29 04:15:00
11:35 PM,1.4,-4.0,78,30.34,-9999.0,Calm,Calm,-,N/A,,Unknown,0,2014-01-29 04:35:00
11:55 PM,-0.4,-4.0,85,30.33,-9999.0,West,3.5,-,N/A,,Unknown,280,2014-01-29 04:55:00